Time;durP1;ratioP1;P1;durP2;ratioP2;P2;SDS_P1;SDS_P2;PMS_P1;PMS_P2;Temp;Humidity;BMP_temperature;BMP_pressure;BME280_temperature;BME280_humidity;BME280_pressure;Samples;Min_cycle;Max_cycle;Signal;HPM_P1;HPM_P2
2021/11/28 00:01:42;;;;;;;;;;;20.10;62.40;;;;;;5073923;28;19982;-52
2021/11/28 00:04:10;;;;;;;;;;;20.10;62.40;;;;;;5073823;28;19928;-57
2021/11/28 00:06:39;;;;;;;;;;;20.10;62.40;;;;;;5073783;28;19925;-51
2021/11/28 00:11:46;;;;;;;;;;;20.10;62.40;;;;;;5073748;28;19935;-53
2021/11/28 00:14:14;;;;;;;;;;;20.10;62.40;;;;;;5055994;28;19932;-58
2021/11/28 00:16:42;;;;;;;;;;;20.10;62.40;;;;;;5073909;28;19951;-50
2021/11/28 00:19:09;;;;;;;;;;;20.10;62.40;;;;;;5073996;28;19925;-56
2021/11/28 00:21:37;;;;;;;;;;;20.10;62.40;;;;;;5073649;28;19929;-58
2021/11/28 00:24:04;;;;;;;;;;;20.10;62.40;;;;;;5073496;28;19932;-54
2021/11/28 00:26:32;;;;;;;;;;;20.10;62.50;;;;;;5073168;28;19924;-56
2021/11/28 00:29:00;;;;;;;;;;;20.10;62.40;;;;;;5056177;28;19978;-48
2021/11/28 00:31:27;;;;;;;;;;;20.10;62.50;;;;;;5056165;28;19924;-57
2021/11/28 00:33:54;;;;;;;;;;;20.10;63.30;;;;;;5074821;28;20338;-57
2021/11/28 00:36:21;;;;;;;;;;;20.00;62.50;;;;;;5077575;28;19929;-58
2021/11/28 00:38:48;;;;;;;;;;;20.00;62.50;;;;;;5077939;28;19931;-52
2021/11/28 00:41:15;;;;;;;;;;;20.00;62.50;;;;;;5076716;28;19931;-57
2021/11/28 00:43:42;;;;;;;;;;;20.00;62.50;;;;;;5077804;28;20264;-53
2021/11/28 00:46:09;;;;;;;;;;;20.00;62.40;;;;;;5077786;28;19931;-54
2021/11/28 00:48:41;;;;;;;;;;;20.00;62.50;;;;;;5077736;28;19947;-58
2021/11/28 00:53:45;;;;;;;;;;;20.00;62.40;;;;;;5077181;28;19924;-58
2021/11/28 00:56:12;;;;;;;;;;;20.00;62.50;;;;;;5076131;28;19924;-57
2021/11/28 00:58:39;;;;;;;;;;;20.00;62.50;;;;;;5077069;28;19970;-57
2021/11/28 01:01:06;;;;;;;;;;;20.00;62.50;;;;;;5077183;28;19924;-56
2021/11/28 01:03:33;;;;;;;;;;;20.00;62.50;;;;;;5077430;28;19924;-58
2021/11/28 01:06:00;;;;;;;;;;;20.00;62.50;;;;;;5077068;28;19928;-58
2021/11/28 01:08:28;;;;;;;;;;;20.00;62.50;;;;;;5077014;28;19924;-58
2021/11/28 01:10:55;;;;;;;;;;;20.00;62.50;;;;;;5076124;28;19928;-58
2021/11/28 01:13:22;;;;;;;;;;;20.00;62.50;;;;;;5077102;28;19932;-55
2021/11/28 01:15:50;;;;;;;;;;;20.00;62.60;;;;;;5076812;28;20384;-59
2021/11/28 01:18:17;;;;;;;;;;;20.00;62.60;;;;;;5077159;28;19978;-50
2021/11/28 01:20:44;;;;;;;;;;;20.00;62.60;;;;;;5077096;28;19928;-53
2021/11/28 01:23:10;;;;;;;;;;;20.00;62.60;;;;;;5076555;28;19929;-58
2021/11/28 01:25:37;;;;;;;;;;;20.00;62.60;;;;;;5075617;28;19932;-52
2021/11/28 01:28:04;;;;;;;;;;;20.00;62.60;;;;;;5077524;28;19924;-46
2021/11/28 01:30:31;;;;;;;;;;;20.00;62.60;;;;;;5076943;28;19931;-58
2021/11/28 01:32:58;;;;;;;;;;;20.00;62.60;;;;;;5076581;28;19925;-55
2021/11/28 01:35:25;;;;;;;;;;;20.00;62.60;;;;;;5076524;28;19975;-52
2021/11/28 01:37:52;;;;;;;;;;;20.00;62.60;;;;;;5076745;28;19924;-54
2021/11/28 01:40:20;;;;;;;;;;;20.00;62.60;;;;;;5076216;28;19932;-57
2021/11/28 01:43:08;;;;;;;;;;;19.90;62.50;;;;;;5076599;28;19924;-53
2021/11/28 01:45:35;;;;;;;;;;;19.90;62.60;;;;;;5074544;28;20403;-52
2021/11/28 01:48:04;;;;;;;;;;;19.90;62.60;;;;;;5076619;28;19925;-57
2021/11/28 01:50:32;;;;;;;;;;;19.90;62.60;;;;;;5077105;28;19970;-58
2021/11/28 01:53:00;;;;;;;;;;;19.90;62.60;;;;;;5076349;28;19931;-57
2021/11/28 01:55:28;;;;;;;;;;;19.90;62.60;;;;;;5075302;28;19928;-54
2021/11/28 01:57:56;;;;;;;;;;;19.90;62.60;;;;;;5075989;28;19924;-56
2021/11/28 02:00:25;;;;;;;;;;;19.90;62.60;;;;;;5076411;28;20272;-54
2021/11/28 02:02:52;;;;;;;;;;;19.90;62.60;;;;;;5076052;28;20387;-52
2021/11/28 02:05:20;;;;;;;;;;;19.90;62.60;;;;;;5076001;28;20400;-56
2021/11/28 02:07:48;;;;;;;;;;;19.90;62.60;;;;;;5076278;28;19931;-57
2021/11/28 02:10:15;;;;;;;;;;;19.90;62.60;;;;;;5057460;28;19932;-51
2021/11/28 02:12:44;;;;;;;;;;;19.90;62.60;;;;;;5075745;28;19924;-57
2021/11/28 02:15:13;;;;;;;;;;;19.90;62.70;;;;;;5075820;28;19931;-57
2021/11/28 02:17:40;;;;;;;;;;;19.90;62.60;;;;;;5075693;28;19932;-57
2021/11/28 02:20:07;;;;;;;;;;;19.90;62.60;;;;;;5076885;28;19928;-50
2021/11/28 02:22:36;;;;;;;;;;;19.90;62.60;;;;;;5058093;28;20334;-58
2021/11/28 02:25:05;;;;;;;;;;;19.90;62.60;;;;;;5075854;28;19924;-58
2021/11/28 02:27:32;;;;;;;;;;;19.90;62.50;;;;;;5075175;28;19925;-51
2021/11/28 02:29:59;;;;;;;;;;;19.90;62.50;;;;;;5075836;28;19970;-53
2021/11/28 02:32:26;;;;;;;;;;;19.90;62.50;;;;;;5075773;28;19928;-54
2021/11/28 02:34:53;;;;;;;;;;;19.90;62.50;;;;;;5075455;28;19924;-55
2021/11/28 02:37:20;;;;;;;;;;;19.90;62.50;;;;;;5076241;28;19925;-58
2021/11/28 02:39:47;;;;;;;;;;;19.90;62.50;;;;;;5075644;28;19932;-50
2021/11/28 02:42:18;;;;;;;;;;;19.90;63.20;;;;;;5075172;28;20329;-52
2021/11/28 02:44:46;;;;;;;;;;;19.90;62.40;;;;;;5075255;28;19929;-49
2021/11/28 02:47:13;;;;;;;;;;;19.90;62.40;;;;;;5075517;28;19947;-49
2021/11/28 02:49:40;;;;;;;;;;;19.90;62.40;;;;;;5075141;28;19928;-58
2021/11/28 02:52:10;;;;;;;;;;;19.90;62.40;;;;;;5075116;28;19974;-51
2021/11/28 02:54:38;;;;;;;;;;;19.90;62.40;;;;;;5074881;28;19924;-50
2021/11/28 02:57:08;;;;;;;;;;;19.90;62.30;;;;;;5073735;28;20044;-54
2021/11/28 02:59:35;;;;;;;;;;;19.90;62.30;;;;;;5075293;28;19925;-54
2021/11/28 03:02:02;;;;;;;;;;;19.90;62.30;;;;;;5075180;28;19924;-58
2021/11/28 03:04:30;;;;;;;;;;;19.90;62.30;;;;;;5075146;28;19925;-56
2021/11/28 03:06:57;;;;;;;;;;;19.90;62.20;;;;;;5074793;28;20387;-53
2021/11/28 03:09:26;;;;;;;;;;;20.00;62.30;;;;;;5074042;28;21332;-52
2021/11/28 03:11:53;;;;;;;;;;;19.90;62.20;;;;;;5074415;28;19925;-52
2021/11/28 03:14:20;;;;;;;;;;;19.90;62.20;;;;;;5074934;28;19931;-57
2021/11/28 03:16:47;;;;;;;;;;;19.90;62.20;;;;;;5074514;28;19925;-57
2021/11/28 03:19:14;;;;;;;;;;;19.90;62.20;;;;;;5074534;28;19924;-53
2021/11/28 03:21:41;;;;;;;;;;;19.90;62.20;;;;;;5074776;28;20349;-57
2021/11/28 03:24:09;;;;;;;;;;;19.90;62.20;;;;;;5074259;28;20011;-58
2021/11/28 03:26:37;;;;;;;;;;;19.90;62.20;;;;;;5073641;28;19951;-55
2021/11/28 03:29:11;;;;;;;;;;;19.90;62.20;;;;;;5074370;28;19924;-56
2021/11/28 03:31:39;;;;;;;;;;;19.90;62.20;;;;;;5074651;28;19931;-57
2021/11/28 03:34:07;;;;;;;;;;;19.90;62.30;;;;;;5074572;28;19933;-58
2021/11/28 03:36:37;;;;;;;;;;;19.90;62.30;;;;;;5074469;28;19925;-51
2021/11/28 03:39:06;;;;;;;;;;;19.90;62.30;;;;;;5074470;28;19977;-50
2021/11/28 03:41:33;;;;;;;;;;;19.90;62.30;;;;;;5073887;28;19989;-56
2021/11/28 03:44:00;;;;;;;;;;;19.90;62.40;;;;;;5074321;28;19928;-58
2021/11/28 03:46:28;;;;;;;;;;;19.90;62.30;;;;;;5074409;28;19924;-54
2021/11/28 03:48:57;;;;;;;;;;;19.90;62.40;;;;;;5074314;28;20426;-56
2021/11/28 03:51:24;;;;;;;;;;;19.90;62.30;;;;;;5074018;28;20411;-54
2021/11/28 03:53:51;;;;;;;;;;;19.80;62.20;;;;;;5074076;28;19929;-58
2021/11/28 03:56:18;;;;;;;;;;;19.80;62.20;;;;;;5074151;28;19924;-54
2021/11/28 03:58:50;;;;;;;;;;;19.80;62.30;;;;;;5073508;28;19924;-51
2021/11/28 04:01:17;;;;;;;;;;;19.80;62.30;;;;;;5074195;28;19990;-47
2021/11/28 04:03:44;;;;;;;;;;;19.80;62.30;;;;;;5074181;28;20292;-52
2021/11/28 04:06:12;;;;;;;;;;;19.80;62.30;;;;;;5073822;28;19924;-57
2021/11/28 04:08:39;;;;;;;;;;;19.80;62.30;;;;;;5073039;28;19974;-57
2021/11/28 04:11:07;;;;;;;;;;;19.80;62.40;;;;;;5074103;28;19925;-57
2021/11/28 04:13:35;;;;;;;;;;;19.80;62.40;;;;;;5072374;28;19985;-56
2021/11/28 04:16:02;;;;;;;;;;;19.80;62.40;;;;;;5073710;28;19978;-53
2021/11/28 04:18:30;;;;;;;;;;;19.80;62.40;;;;;;5073939;28;19924;-56
2021/11/28 04:20:57;;;;;;;;;;;19.80;62.40;;;;;;5073989;28;19936;-57
2021/11/28 04:23:24;;;;;;;;;;;19.80;62.40;;;;;;5073488;28;20368;-53
2021/11/28 04:25:51;;;;;;;;;;;19.80;62.40;;;;;;5073618;28;20367;-57
2021/11/28 04:28:18;;;;;;;;;;;19.80;62.40;;;;;;5073045;28;19925;-53
2021/11/28 04:30:46;;;;;;;;;;;19.70;62.40;;;;;;5073574;28;19978;-51
2021/11/28 04:33:15;;;;;;;;;;;19.70;62.40;;;;;;5073540;28;19924;-54
2021/11/28 04:35:43;;;;;;;;;;;19.70;62.40;;;;;;5073571;28;19928;-55
2021/11/28 04:38:10;;;;;;;;;;;19.70;62.40;;;;;;5073437;28;19931;-56
2021/11/28 04:40:37;;;;;;;;;;;19.70;62.40;;;;;;5073802;28;19978;-58
2021/11/28 04:43:04;;;;;;;;;;;19.70;62.40;;;;;;5072634;28;20276;-59
2021/11/28 04:45:31;;;;;;;;;;;19.70;62.40;;;;;;5073442;28;20379;-57
2021/11/28 04:47:58;;;;;;;;;;;19.70;62.40;;;;;;5073426;28;19925;-57
2021/11/28 04:50:25;;;;;;;;;;;19.70;62.40;;;;;;5073957;28;20001;-55
2021/11/28 04:52:52;;;;;;;;;;;19.70;62.40;;;;;;5073513;28;19928;-52
2021/11/28 04:55:19;;;;;;;;;;;19.70;62.80;;;;;;5073671;28;19928;-57
2021/11/28 04:57:46;;;;;;;;;;;19.70;62.50;;;;;;5072003;28;19974;-58
2021/11/28 05:00:17;;;;;;;;;;;19.70;62.50;;;;;;5073595;28;19978;-55
2021/11/28 05:02:44;;;;;;;;;;;19.70;62.50;;;;;;5073310;28;20425;-53
2021/11/28 05:05:11;;;;;;;;;;;19.70;62.50;;;;;;5073250;28;19978;-56
2021/11/28 05:07:38;;;;;;;;;;;19.70;62.50;;;;;;5073217;28;20392;-54
2021/11/28 05:10:06;;;;;;;;;;;19.70;62.50;;;;;;5073216;28;19925;-57
2021/11/28 05:12:33;;;;;;;;;;;19.70;62.50;;;;;;5074053;28;19928;-57
2021/11/28 05:15:00;;;;;;;;;;;19.70;62.50;;;;;;5093405;28;19924;-56
2021/11/28 05:17:27;;;;;;;;;;;19.70;62.50;;;;;;5093604;28;20029;-57
2021/11/28 05:19:54;;;;;;;;;;;19.70;62.50;;;;;;5094222;28;19924;-58
2021/11/28 05:22:21;;;;;;;;;;;19.70;62.50;;;;;;5096946;28;19969;-57
2021/11/28 05:24:50;;;;;;;;;;;19.60;62.40;;;;;;5097371;28;20295;-56
2021/11/28 05:27:17;;;;;;;;;;;19.60;62.40;;;;;;5097274;28;19924;-53
2021/11/28 05:29:45;;;;;;;;;;;19.60;62.50;;;;;;5094949;28;19923;-57
2021/11/28 05:32:12;;;;;;;;;;;19.60;62.50;;;;;;5096898;28;19928;-55
2021/11/28 05:34:39;;;;;;;;;;;19.60;62.50;;;;;;5096855;28;19931;-56
2021/11/28 05:37:07;;;;;;;;;;;19.60;62.50;;;;;;5096747;28;19930;-55
2021/11/28 05:39:34;;;;;;;;;;;19.60;62.50;;;;;;5097612;28;20371;-56
2021/11/28 05:42:01;;;;;;;;;;;19.60;62.50;;;;;;5096593;28;19924;-48
2021/11/28 05:44:28;;;;;;;;;;;19.60;62.50;;;;;;5094071;28;19924;-58
2021/11/28 05:46:55;;;;;;;;;;;19.60;62.50;;;;;;5096620;28;19924;-50
2021/11/28 05:49:22;;;;;;;;;;;19.60;62.50;;;;;;5096875;28;19928;-55
2021/11/28 05:51:49;;;;;;;;;;;19.60;62.50;;;;;;5096855;28;19974;-54
2021/11/28 05:54:16;;;;;;;;;;;19.60;62.50;;;;;;5096629;28;19928;-58
2021/11/28 05:56:43;;;;;;;;;;;19.60;62.50;;;;;;5096503;28;19924;-53
2021/11/28 05:59:10;;;;;;;;;;;19.60;62.50;;;;;;5093849;28;19971;-52
2021/11/28 06:01:37;;;;;;;;;;;19.60;62.50;;;;;;5078732;28;19925;-58
2021/11/28 06:04:04;;;;;;;;;;;19.60;62.50;;;;;;5078728;28;20379;-58
2021/11/28 06:06:31;;;;;;;;;;;19.60;62.50;;;;;;5097068;28;20481;-57
2021/11/28 06:08:58;;;;;;;;;;;19.60;62.50;;;;;;5096193;28;19924;-55
2021/11/28 06:11:25;;;;;;;;;;;19.60;62.50;;;;;;5096465;28;20264;-56
2021/11/28 06:13:52;;;;;;;;;;;19.60;62.50;;;;;;5094129;28;20379;-57
2021/11/28 06:16:19;;;;;;;;;;;19.60;62.60;;;;;;5096386;28;19969;-53
2021/11/28 06:18:46;;;;;;;;;;;19.60;62.50;;;;;;5095949;28;19936;-57
2021/11/28 06:21:13;;;;;;;;;;;19.60;62.50;;;;;;5096324;28;19924;-58
2021/11/28 06:23:41;;;;;;;;;;;19.60;62.60;;;;;;5095738;28;19923;-52
2021/11/28 06:26:08;;;;;;;;;;;19.60;62.60;;;;;;5095905;28;20415;-55
2021/11/28 06:28:35;;;;;;;;;;;19.60;62.60;;;;;;5094380;28;19924;-51
2021/11/28 06:31:02;;;;;;;;;;;19.60;62.60;;;;;;5095368;28;19935;-56
2021/11/28 06:33:29;;;;;;;;;;;19.60;62.60;;;;;;5095718;28;20330;-53
2021/11/28 06:35:56;;;;;;;;;;;19.60;62.60;;;;;;5095727;28;19924;-52
2021/11/28 06:38:23;;;;;;;;;;;19.60;62.60;;;;;;5096383;28;19924;-51
2021/11/28 06:40:50;;;;;;;;;;;19.60;62.60;;;;;;5095564;28;20300;-55
2021/11/28 06:43:17;;;;;;;;;;;19.60;62.60;;;;;;5093013;28;20391;-59
2021/11/28 06:45:44;;;;;;;;;;;19.60;62.60;;;;;;5096045;28;19924;-53
2021/11/28 06:48:11;;;;;;;;;;;19.60;62.60;;;;;;5095669;28;19931;-53
2021/11/28 06:50:38;;;;;;;;;;;19.60;62.60;;;;;;5095394;28;20367;-54
2021/11/28 06:53:05;;;;;;;;;;;19.60;62.60;;;;;;5095173;28;19924;-54
2021/11/28 06:55:32;;;;;;;;;;;19.60;62.60;;;;;;5095554;28;19935;-58
2021/11/28 06:57:59;;;;;;;;;;;19.50;62.50;;;;;;5095012;28;19946;-54
2021/11/28 07:00:29;;;;;;;;;;;19.60;62.60;;;;;;5092675;28;19977;-58
2021/11/28 07:02:57;;;;;;;;;;;19.60;62.60;;;;;;5095173;28;20010;-49
2021/11/28 07:05:24;;;;;;;;;;;19.50;62.50;;;;;;5095074;28;19924;-57
2021/11/28 07:07:51;;;;;;;;;;;19.50;62.50;;;;;;5095382;28;20339;-52
2021/11/28 07:10:18;;;;;;;;;;;19.50;62.50;;;;;;5095334;28;19930;-57
2021/11/28 07:12:45;;;;;;;;;;;19.50;62.60;;;;;;5095173;28;19931;-52
2021/11/28 07:15:13;;;;;;;;;;;19.50;62.60;;;;;;5092245;28;20391;-57
2021/11/28 07:17:40;;;;;;;;;;;19.50;62.50;;;;;;5094800;28;19931;-57
2021/11/28 07:20:07;;;;;;;;;;;19.60;62.60;;;;;;5095150;28;19924;-58
2021/11/28 07:22:35;;;;;;;;;;;19.50;62.50;;;;;;5094889;28;19924;-58
2021/11/28 07:25:03;;;;;;;;;;;19.50;62.50;;;;;;5094751;28;19928;-52
2021/11/28 07:27:30;;;;;;;;;;;19.60;62.60;;;;;;5095240;28;19928;-54
2021/11/28 07:29:57;;;;;;;;;;;19.50;62.50;;;;;;5057552;28;20337;-57
2021/11/28 07:32:24;;;;;;;;;;;19.50;62.50;;;;;;5095132;28;19969;-54
2021/11/28 07:34:51;;;;;;;;;;;19.50;62.40;;;;;;5094525;28;19954;-57
2021/11/28 07:37:18;;;;;;;;;;;19.60;62.50;;;;;;5094761;28;20319;-51
2021/11/28 07:39:45;;;;;;;;;;;19.50;62.40;;;;;;5094808;28;19932;-50
2021/11/28 07:42:12;;;;;;;;;;;19.50;62.40;;;;;;5076940;28;19928;-57
2021/11/28 07:44:39;;;;;;;;;;;19.50;62.40;;;;;;5091999;28;20048;-53
2021/11/28 07:47:06;;;;;;;;;;;19.60;62.50;;;;;;5094678;28;20298;-57
2021/11/28 07:49:33;;;;;;;;;;;19.60;62.40;;;;;;5094635;28;19924;-54
2021/11/28 07:52:00;;;;;;;;;;;19.60;62.50;;;;;;5094588;28;20007;-49
2021/11/28 07:54:27;;;;;;;;;;;19.60;62.40;;;;;;5094268;28;19950;-58
2021/11/28 07:56:54;;;;;;;;;;;19.60;62.40;;;;;;5076333;28;20390;-52
2021/11/28 07:59:21;;;;;;;;;;;19.60;62.30;;;;;;5091483;28;20402;-57
2021/11/28 08:01:48;;;;;;;;;;;19.60;62.30;;;;;;5094125;28;20395;-51
2021/11/28 08:04:16;;;;;;;;;;;19.60;62.20;;;;;;5094079;28;20477;-51
2021/11/28 08:06:43;;;;;;;;;;;19.60;62.20;;;;;;5094055;28;19928;-55
2021/11/28 08:09:10;;;;;;;;;;;19.60;62.20;;;;;;5094309;28;19924;-55
2021/11/28 08:11:37;;;;;;;;;;;19.60;62.10;;;;;;5094251;28;20296;-52
2021/11/28 08:14:04;;;;;;;;;;;19.60;62.10;;;;;;5093954;28;19967;-54
2021/11/28 08:16:31;;;;;;;;;;;19.60;62.10;;;;;;5073380;28;19925;-51
2021/11/28 08:18:59;;;;;;;;;;;19.60;62.00;;;;;;5073665;28;20023;-57
2021/11/28 08:21:26;;;;;;;;;;;19.60;62.00;;;;;;5073944;28;19964;-58
2021/11/28 08:23:55;;;;;;;;;;;19.60;62.00;;;;;;5073808;28;19925;-57
2021/11/28 08:26:22;;;;;;;;;;;19.70;62.10;;;;;;5074172;28;19959;-55
2021/11/28 08:28:50;;;;;;;;;;;19.70;62.00;;;;;;5073933;28;19924;-59
2021/11/28 08:31:17;;;;;;;;;;;19.70;62.00;;;;;;5088291;28;20355;-58
2021/11/28 08:33:44;;;;;;;;;;;19.70;62.00;;;;;;5094948;28;20369;-51
2021/11/28 08:36:11;;;;;;;;;;;19.70;61.90;;;;;;5093732;28;19924;-58
2021/11/28 08:38:42;;;;;;;;;;;19.70;61.90;;;;;;5093952;28;19986;-56
2021/11/28 08:41:10;;;;;;;;;;;19.70;61.80;;;;;;5093744;28;20410;-57
2021/11/28 08:43:38;;;;;;;;;;;19.70;61.80;;;;;;5093874;28;19930;-54
2021/11/28 08:46:05;;;;;;;;;;;19.70;61.80;;;;;;5073635;28;19928;-57
2021/11/28 08:48:33;;;;;;;;;;;19.80;61.80;;;;;;5094178;28;19954;-58
2021/11/28 08:51:01;;;;;;;;;;;19.80;61.80;;;;;;5093577;28;19924;-58
2021/11/28 08:53:28;;;;;;;;;;;19.80;61.70;;;;;;5093538;28;20425;-55
2021/11/28 08:55:55;;;;;;;;;;;19.80;61.70;;;;;;5096208;28;19924;-58
2021/11/28 08:58:22;;;;;;;;;;;19.80;61.60;;;;;;5097611;28;20367;-57
2021/11/28 09:00:49;;;;;;;;;;;19.80;61.50;;;;;;5086269;28;19974;-55
2021/11/28 09:03:16;;;;;;;;;;;19.80;61.50;;;;;;5077192;28;20441;-52
2021/11/28 09:05:43;;;;;;;;;;;19.80;61.50;;;;;;5077113;28;20015;-52
2021/11/28 09:08:10;;;;;;;;;;;19.90;61.50;;;;;;5077102;28;19931;-56
2021/11/28 09:10:38;;;;;;;;;;;19.90;61.50;;;;;;5077005;28;19947;-54
2021/11/28 09:13:05;;;;;;;;;;;19.90;61.40;;;;;;5076860;28;20268;-55
2021/11/28 09:15:32;;;;;;;;;;;19.90;61.40;;;;;;5081161;28;19928;-57
2021/11/28 09:18:20;;;;;;;;;;;19.90;61.40;;;;;;5097148;28;19928;-56
2021/11/28 09:20:56;;;;;;;;;;;19.90;61.30;;;;;;5097172;28;19968;-57
2021/11/28 09:26:10;;;;;;;;;;;19.90;61.30;;;;;;5097103;28;19973;-57
2021/11/28 09:28:37;;;;;;;;;;;20.00;61.30;;;;;;5097289;28;19924;-58
2021/11/28 09:31:09;;;;;;;;;;;20.00;61.20;;;;;;5094551;28;19927;-58
2021/11/28 09:33:39;;;;;;;;;;;20.00;61.20;;;;;;5097233;28;19924;-58
2021/11/28 09:36:07;;;;;;;;;;;20.00;61.10;;;;;;5096844;28;19924;-56
2021/11/28 09:38:35;;;;;;;;;;;20.00;61.00;;;;;;5096715;28;19924;-58
2021/11/28 09:41:03;;;;;;;;;;;20.00;61.00;;;;;;5078888;28;19928;-58
2021/11/28 09:43:33;;;;;;;;;;;20.00;61.00;;;;;;5096895;28;19946;-58
2021/11/28 09:46:03;;;;;;;;;;;20.10;61.10;;;;;;5094108;28;19930;-56
2021/11/28 09:48:31;;;;;;;;;;;20.10;61.00;;;;;;5096606;28;20010;-54
2021/11/28 09:50:58;;;;;;;;;;;20.00;60.90;;;;;;5096626;28;20380;-56
2021/11/28 09:53:35;;;;;;;;;;;20.10;60.90;;;;;;5096364;28;19931;-59
2021/11/28 09:56:03;;;;;;;;;;;20.10;60.90;;;;;;5096492;28;19978;-57
2021/11/28 09:58:31;;;;;;;;;;;20.10;61.70;;;;;;5096287;28;20007;-54
2021/11/28 10:00:59;;;;;;;;;;;20.10;60.90;;;;;;5093734;28;19924;-56
2021/11/28 10:03:27;;;;;;;;;;;20.10;60.90;;;;;;5078460;28;19925;-59
2021/11/28 10:05:55;;;;;;;;;;;20.10;60.90;;;;;;5077824;28;19947;-51
2021/11/28 10:08:23;;;;;;;;;;;20.10;60.90;;;;;;5095717;28;19931;-55
2021/11/28 10:11:10;;;;;;;;;;;20.10;61.00;;;;;;5096518;28;20010;-53
2021/11/28 10:13:37;;;;;;;;;;;20.10;61.00;;;;;;5095963;28;20414;-52
2021/11/28 10:16:04;;;;;;;;;;;20.10;60.90;;;;;;5093843;28;19970;-58
2021/11/28 10:18:34;;;;;;;;;;;20.10;60.90;;;;;;5096286;28;19953;-58
2021/11/28 10:21:01;;;;;;;;;;;20.10;60.90;;;;;;5096325;28;19931;-51
2021/11/28 10:23:29;;;;;;;;;;;20.10;60.90;;;;;;5095757;28;19928;-58
2021/11/28 10:26:13;;;;;;;;;;;20.10;60.90;;;;;;5078650;28;19924;-55
2021/11/28 10:28:59;;;;;;;;;;;20.10;60.90;;;;;;5096690;28;19977;-58
2021/11/28 10:31:26;;;;;;;;;;;20.10;60.90;;;;;;5093118;28;20011;-58
2021/11/28 10:33:54;;;;;;;;;;;20.10;60.90;;;;;;5078436;28;20041;-56
2021/11/28 10:36:21;;;;;;;;;;;20.10;60.90;;;;;;5078095;28;19924;-59
2021/11/28 10:38:50;;;;;;;;;;;20.20;60.90;;;;;;5077938;28;19924;-58
2021/11/28 10:41:18;;;;;;;;;;;20.20;60.90;;;;;;5095898;28;19924;-55
2021/11/28 10:43:45;;;;;;;;;;;20.20;60.90;;;;;;5077816;28;19924;-56
2021/11/28 10:46:41;;;;;;;;;;;20.20;60.80;;;;;;5093211;28;20015;-54
2021/11/28 10:49:10;;;;;;;;;;;20.20;60.80;;;;;;5033622;28;20285;-58
2021/11/28 10:51:38;;;;;;;;;;;20.20;60.80;;;;;;5033211;28;19925;-58
2021/11/28 10:54:24;;;;;;;;;;;20.20;60.80;;;;;;5033128;28;19925;-58
2021/11/28 10:57:00;;;;;;;;;;;20.20;60.80;;;;;;5032936;28;19925;-58
2021/11/28 10:59:27;;;;;;;;;;;20.20;60.70;;;;;;5033218;28;19929;-58
2021/11/28 11:01:54;;;;;;;;;;;20.20;60.70;;;;;;5023121;28;19933;-53
2021/11/28 11:04:21;;;;;;;;;;;20.20;60.70;;;;;;5013224;28;19925;-56
2021/11/28 11:07:07;;;;;;;;;;;20.20;60.70;;;;;;5013519;28;19932;-57
2021/11/28 11:09:42;;;;;;;;;;;20.30;60.80;;;;;;5013967;28;19931;-58
2021/11/28 11:12:20;;;;;;;;;;;20.30;60.80;;;;;;5013081;28;20044;-51
2021/11/28 11:14:49;;;;;;;;;;;20.30;60.80;;;;;;4996882;28;19926;-58
2021/11/28 11:17:20;;;;;;;;;;;20.30;60.80;;;;;;5020662;28;20300;-52
2021/11/28 11:19:48;;;;;;;;;;;20.30;60.70;;;;;;5032807;28;19925;-49
2021/11/28 11:22:18;;;;;;;;;;;20.30;60.70;;;;;;5032642;28;19932;-57
2021/11/28 11:24:53;;;;;;;;;;;20.30;60.70;;;;;;5039298;28;19975;-55
2021/11/28 11:27:22;;;;;;;;;;;20.30;60.70;;;;;;5075051;28;19925;-49
2021/11/28 11:29:51;;;;;;;;;;;20.30;60.70;;;;;;5074725;28;20003;-51
2021/11/28 11:32:20;;;;;;;;;;;20.30;60.60;;;;;;5072101;28;19978;-58
2021/11/28 11:34:50;;;;;;;;;;;20.30;60.60;;;;;;5074285;28;19931;-56
2021/11/28 11:37:18;;;;;;;;;;;20.30;60.60;;;;;;5106698;28;20477;-57
2021/11/28 11:39:46;;;;;;;;;;;20.30;60.60;;;;;;5074153;28;19931;-56
2021/11/28 11:42:16;;;;;;;;;;;20.30;60.60;;;;;;5074059;28;19928;-52
2021/11/28 11:44:44;;;;;;;;;;;20.40;60.70;;;;;;5074432;28;19986;-52
2021/11/28 11:47:17;;;;;;;;;;;20.40;60.70;;;;;;5071620;28;20418;-57
2021/11/28 11:49:45;;;;;;;;;;;20.30;60.60;;;;;;5074387;28;19935;-59
2021/11/28 11:52:12;;;;;;;;;;;20.30;60.60;;;;;;5074369;28;19978;-48
2021/11/28 11:54:42;;;;;;;;;;;20.40;60.70;;;;;;5074440;28;20264;-58
2021/11/28 11:57:14;;;;;;;;;;;20.40;60.70;;;;;;5079119;28;19924;-58
2021/11/28 12:00:05;;;;;;;;;;;20.40;60.70;;;;;;5094158;28;19924;-52
2021/11/28 12:02:36;;;;;;;;;;;20.40;60.70;;;;;;5092398;28;20387;-54
2021/11/28 12:05:22;;;;;;;;;;;20.40;60.70;;;;;;5094118;28;19981;-52
2021/11/28 12:07:50;;;;;;;;;;;20.40;60.70;;;;;;5094039;28;20375;-51
2021/11/28 12:10:29;;;;;;;;;;;20.40;60.70;;;;;;5076183;28;19967;-56
2021/11/28 12:12:57;;;;;;;;;;;20.40;60.70;;;;;;5094278;28;20014;-55
2021/11/28 12:15:28;;;;;;;;;;;20.40;60.70;;;;;;5094260;28;19932;-54
2021/11/28 12:17:57;;;;;;;;;;;20.40;60.70;;;;;;5082359;28;19975;-51
2021/11/28 12:20:42;;;;;;;;;;;20.40;60.80;;;;;;5073579;28;19928;-58
2021/11/28 12:23:10;;;;;;;;;;;20.40;60.80;;;;;;5073784;28;19924;-52
2021/11/28 12:25:39;;;;;;;;;;;20.40;60.80;;;;;;5073626;28;20437;-53
2021/11/28 12:28:19;;;;;;;;;;;20.40;60.80;;;;;;5073953;28;20028;-49
2021/11/28 12:31:09;;;;;;;;;;;20.40;60.70;;;;;;5058145;28;19925;-52
2021/11/28 12:33:54;;;;;;;;;;;20.40;60.70;;;;;;5072715;28;19966;-58
2021/11/28 12:36:42;;;;;;;;;;;20.40;60.80;;;;;;5073539;28;20384;-56
2021/11/28 12:39:25;;;;;;;;;;;20.40;60.80;;;;;;5073673;28;19983;-56
2021/11/28 12:41:58;;;;;;;;;;;20.40;60.80;;;;;;5073397;28;19978;-56
2021/11/28 12:44:26;;;;;;;;;;;20.40;60.70;;;;;;5073768;28;19966;-58
2021/11/28 12:46:54;;;;;;;;;;;20.40;60.80;;;;;;5073453;28;19924;-50
2021/11/28 12:49:32;;;;;;;;;;;20.40;60.80;;;;;;5073097;28;19985;-55
2021/11/28 12:52:23;;;;;;;;;;;20.40;60.80;;;;;;5074121;28;20366;-56
2021/11/28 12:55:02;;;;;;;;;;;20.40;60.80;;;;;;5073407;28;19932;-59
2021/11/28 12:57:30;;;;;;;;;;;20.40;60.80;;;;;;5073496;28;19924;-59
2021/11/28 13:00:09;;;;;;;;;;;20.40;60.70;;;;;;5073574;28;19925;-57
2021/11/28 13:02:41;;;;;;;;;;;20.50;60.80;;;;;;5073183;28;19932;-55
2021/11/28 13:05:21;;;;;;;;;;;20.50;60.80;;;;;;5073256;28;19925;-55
2021/11/28 13:07:47;;;;;;;;;;;20.50;60.80;;;;;;5055577;28;19924;-55
2021/11/28 13:10:22;;;;;;;;;;;20.50;60.80;;;;;;5073216;28;19935;-56
2021/11/28 13:12:49;;;;;;;;;;;20.50;60.80;;;;;;5055804;28;20269;-58
2021/11/28 13:15:22;;;;;;;;;;;20.50;60.80;;;;;;5073460;28;19924;-54
2021/11/28 13:17:49;;;;;;;;;;;20.50;60.80;;;;;;5072468;28;19924;-52
2021/11/28 13:20:17;;;;;;;;;;;20.50;60.80;;;;;;5055350;28;20433;-56
2021/11/28 13:22:44;;;;;;;;;;;20.50;60.70;;;;;;5055212;28;19928;-58
2021/11/28 13:25:29;;;;;;;;;;;20.50;60.70;;;;;;5073102;28;20438;-50
2021/11/28 13:28:01;;;;;;;;;;;20.50;60.80;;;;;;5073142;28;19967;-53
2021/11/28 13:30:37;;;;;;;;;;;20.50;60.80;;;;;;5073366;28;19924;-53
2021/11/28 13:33:10;;;;;;;;;;;20.50;60.80;;;;;;5072302;28;20351;-55
2021/11/28 13:35:37;;;;;;;;;;;20.50;60.80;;;;;;5073224;28;19925;-57
2021/11/28 13:38:14;;;;;;;;;;;20.50;60.80;;;;;;5073166;28;19950;-52
2021/11/28 13:41:01;;;;;;;;;;;20.50;60.80;;;;;;5073445;28;19975;-56
2021/11/28 13:43:54;;;;;;;;;;;20.50;60.80;;;;;;5076673;28;19924;-54
2021/11/28 13:46:33;;;;;;;;;;;20.50;60.80;;;;;;5073376;28;19958;-53
2021/11/28 13:49:01;;;;;;;;;;;20.50;60.90;;;;;;5075771;28;19925;-54
2021/11/28 13:51:35;;;;;;;;;;;20.50;60.90;;;;;;5076563;28;20389;-50
2021/11/28 13:54:03;;;;;;;;;;;20.50;60.90;;;;;;5076093;28;19963;-53
2021/11/28 13:56:41;;;;;;;;;;;20.50;60.90;;;;;;5076837;28;19925;-53
2021/11/28 13:59:09;;;;;;;;;;;20.50;61.00;;;;;;5077025;28;19974;-58
2021/11/28 14:01:36;;;;;;;;;;;20.50;61.00;;;;;;5076155;28;20441;-54
2021/11/28 14:04:23;;;;;;;;;;;20.50;61.00;;;;;;5075238;28;19931;-56
2021/11/28 14:06:51;;;;;;;;;;;20.50;61.00;;;;;;5076032;28;19924;-52
2021/11/28 14:09:18;;;;;;;;;;;20.50;61.00;;;;;;5077187;28;19973;-60
2021/11/28 14:11:48;;;;;;;;;;;20.50;61.10;;;;;;5076042;28;19928;-57
2021/11/28 14:14:17;;;;;;;;;;;20.50;61.10;;;;;;5075963;28;19924;-52
2021/11/28 14:16:50;;;;;;;;;;;20.50;61.00;;;;;;5076414;28;20040;-54
2021/11/28 14:19:41;;;;;;;;;;;20.50;61.10;;;;;;5074762;28;20406;-58
2021/11/28 14:22:26;;;;;;;;;;;20.50;61.10;;;;;;5075781;28;19925;-58
2021/11/28 14:24:53;;;;;;;;;;;20.50;61.10;;;;;;5076582;28;19924;-50
2021/11/28 14:27:22;;;;;;;;;;;20.50;61.10;;;;;;5076837;28;19986;-56
2021/11/28 14:29:59;;;;;;;;;;;20.50;61.20;;;;;;5075961;28;19939;-48
2021/11/28 14:32:27;;;;;;;;;;;20.50;61.20;;;;;;5075885;28;19925;-53
2021/11/28 14:35:12;;;;;;;;;;;20.50;61.20;;;;;;5075301;28;19932;-48
2021/11/28 14:37:39;;;;;;;;;;;20.50;61.20;;;;;;5075645;28;19928;-54